Woolcott, Kentucky
Current Conditions -  °F | °C
As of 1:55 PM on Friday 31 Oct 2014 (Local Time) from KFGX Reporting Station
Light Rain Light Rain  
Wind Chill: 40°   Ceiling: 900
Heat Index: 45°   Visibility: 7mi
Dew Point: 43°   Wind: 9mph
Humidity: 93%   Direction: 250°WSW
Pressure: 29.91"   Gusts: NA
Location:  38.6516°N, 84.0942°W
Report Text: KFGX 311755Z AUTO 25008KT 7SM -RA BKN009 OVC023 07/06 A2991 RMK AO2 T00710061 10074 20043
Loading
Personal Weather Stations






























Interactive Weather Map
Tropical Storm Tracking
New forecast layout! Learn more

10-Day Weather Forecast

Advertisements
Track Severe Weather on mobile